Terminal Aerodrome Forecast
Issued by NWS

Home | Current Version | Previous Version | Text Only | Print | Product List | Glossary On
Versions: 1 2 3 4 5 6 7 8 9 10 11 12 13 14 15 16 17 18 19 20 21 22 23 24 25 26 27 28 29 30 31 32 33 34 35 36 37 38 39
000
FTUS42 KRAH 271726
TAFRWI
TAF
KRWI 271726Z 2718/2818 20008KT P6SM VCSH BKN050 BKN250
      TEMPO 2720/2724 5SM -TSRA BKN050CB
     FM280100 20003KT P6SM BKN100
     FM281000 21003KT P6SM SCT007 BKN010
      TEMPO 2810/2812 4SM BR BKN007
     FM281500 22005KT P6SM SCT015 BKN040=

USA.gov is the U.S. government's official web portal to all federal, state and local government web resources and services.